Latest Coastal Weather Observations for Portland Airport

IDV60701

Issued at 12:41 am EDT Sunday 21 December 2014 (issued every 10 minutes, with the page automatically refreshed every 10 minutes)

About coastal observations | Map of coastal stations | Coastal observations for VIC | Marine services | Other Formats
Station Details ID: 090171 Name: CASHMORE AIRPORT Lat: -38.31 Lon: 141.47 Height: 80.9 m
Data from the previous 72 hours. | See also: Recent months at Portland Airport
Date/Time
EDT
Temp

°C
Wind Pressure Rain
since 9am
mm
Weather Cloud Vis
km
Sea
Height
m
Swell
Dir
 
Speed
knots
Gust
knots
hPa Trend Height
m
Period
s
Dir
21/12:30am 9.7 CALM 0 0 1016.3 - 0.0 - - - - - - -
 
Date/Time
EDT
Temp

°C
Wind Pressure Rain
since 9am
mm
Weather Cloud Vis
km
Sea
Height
m
Swell
Dir
 
Speed
knots
Gust
knots
hPa Trend Height
m
Period
s
Dir
20/11:30pm 11.3 SE 3 4 1016.9 - 0.0 - - - - - - -
20/11:00pm 11.8 SE 3 4 1017.1 - 0.0 - - - - - - -
20/10:30pm 12.1 SE 4 5 1017.3 - 0.0 - - - - - - -
20/10:00pm 12.7 SE 3 4 1017.3 - 0.0 - - - - - - -
20/09:30pm 13.6 SE 3 5 1017.3 - 0.0 - - - - - - -
20/09:00pm 14.8 SSE 4 5 1017.3 - 0.0 - - - - - - -
20/08:30pm 15.7 S 5 7 1017.5 - 0.0 - - - - - - -
20/08:00pm 16.3 S 6 8 1017.3 - 0.0 - - - - - - -
20/07:30pm 17.0 S 6 8 1017.1 - 0.0 - - - - - - -
20/07:00pm 17.2 S 8 11 1016.8 - 0.0 - - - - - - -
20/06:30pm 17.5 S 8 11 1017.0 - 0.0 - - - - - - -
20/06:00pm 18.2 SSW 8 13 1017.1 - 0.0 - - - - - - -
20/05:30pm 18.0 S 8 13 1017.3 - 0.0 - - - - - - -
20/05:00pm 19.2 WSW 10 13 1017.4 - 0.0 - - - - - - -
20/04:30pm 19.3 W 10 13 1017.7 - 0.0 - - - - - - -
20/04:00pm 19.5 WSW 9 13 1017.9 - 0.0 - - - - - - -
20/03:30pm 18.6 W 9 14 1018.4 - 0.0 - Partly cloudy - - - - -
20/03:00pm 18.4 W 10 15 1018.8 - 0.0 - Mostly clear - - - - -
20/02:30pm 18.4 W 11 18 1018.9 - 0.0 - Partly cloudy - - - - -
20/02:00pm 18.6 W 11 15 1019.2 - 0.0 - Cloudy - - - - -
20/01:30pm 18.0 W 11 16 1019.4 - 0.0 - Cloudy - - - - -
20/01:00pm 18.4 W 10 15 1019.5 - 0.0 - Cloudy - - - - -
20/12:30pm 17.8 W 11 16 1019.7 - 0.0 - Cloudy - - - - -
20/12:00pm 17.7 W 10 17 1019.8 - 0.0 - Cloudy - - - - -
20/11:30am 17.1 W 11 14 1019.9 - 0.0 - Cloudy - - - - -
20/11:00am 17.3 WSW 11 15 1019.9 - 0.0 - Cloudy - - - - -
20/10:30am 16.7 W 10 15 1020.0 - 0.0 - Cloudy - - - - -
20/10:00am 16.6 W 10 16 1019.9 - 0.0 - Cloudy - - - - -
20/09:30am 16.7 W 10 13 1019.8 - 0.0 - Cloudy - - - - -
20/09:00am 16.2 W 10 16 1019.5 - 0.0 - Mostly cloudy - - - - -
20/08:30am 15.6 WSW 9 14 1019.2 - 0.0 - Cloudy - - - - -
20/08:00am 15.3 WSW 9 13 1018.8 - 0.0 - Cloudy - - - - -
20/07:30am 15.0 WSW 8 13 1018.5 - 0.0 - Cloudy - - - - -
20/07:00am 14.6 WSW 7 8 1018.2 - 0.0 - Cloudy - - - - -
20/06:30am 14.5 WSW 9 13 1018.1 - 0.0 - Cloudy - - - - -
20/06:00am 14.5 W 7 10 1018.0 - 0.0 - Cloudy - - - - -
20/05:30am 14.5 W 7 9 1017.7 - 0.0 - Cloudy - - - - -
20/05:00am 14.5 W 9 11 1017.8 - 0.0 - Cloudy - - - - -
20/04:30am 14.3 W 7 10 1017.8 - 0.0 - Cloudy - - - - -
20/04:00am 14.3 W 9 13 1017.9 - 0.0 - Cloudy - - - - -
20/03:30am 14.3 W 7 11 1018.0 - 0.0 - Cloudy - - - - -
20/03:00am 13.8 W 7 10 1018.3 - 0.0 - Cloudy - - - - -
20/02:30am 11.9 CALM 0 0 1018.7 - 0.0 - Cloudy - - - - -
20/02:00am 11.8 W 3 3 1018.9 - 0.0 - Cloudy - - - - -
20/01:30am 11.1 W 4 5 1019.3 - 0.0 - Partly cloudy - - - - -
20/01:00am 11.3 W 5 5 1019.4 - 0.0 - Partly cloudy - - - - -
20/12:30am 12.2 W 6 6 1019.5 - 0.0 - Partly cloudy - - - - -
20/12:00am 13.0 W 6 8 1019.8 - 0.0 - Mostly cloudy - - - - -
 
Date/Time
EDT
Temp

°C
Wind Pressure Rain
since 9am
mm
Weather Cloud Vis
km
Sea
Height
m
Swell
Dir
 
Speed
knots
Gust
knots
hPa Trend Height
m
Period
s
Dir
19/11:30pm 12.1 W 4 5 1020.1 - 0.0 - Partly cloudy - - - - -
19/11:00pm 12.7 W 5 5 1020.2 - 0.0 - Partly cloudy - - - - -
19/10:30pm 13.9 W 6 8 1020.4 - 0.0 - Partly cloudy - - - - -
19/10:00pm 14.3 W 7 9 1020.3 - 0.0 - Cloudy - - - - -
19/09:30pm 13.6 W 4 6 1020.2 - 0.0 - Cloudy - - - - -
19/09:00pm 13.4 W 6 7 1020.2 - 0.0 - Partly cloudy - - - - -
19/08:30pm 14.1 W 8 12 1020.4 - 0.0 - - - - - - -
19/08:00pm 15.2 WSW 10 14 1020.2 - 0.0 - Partly cloudy - - - - -
19/07:30pm 15.6 WSW 11 15 1019.8 - 0.0 - Partly cloudy - - - - -
19/07:00pm 16.0 WSW 13 17 1019.8 - 0.0 - Partly cloudy - - - - -
19/06:30pm 16.7 WSW 12 17 1019.6 - 0.0 - Partly cloudy - - - - -
19/06:00pm 16.6 WSW 13 17 1019.5 - 0.0 - Mostly cloudy - - - - -
19/05:30pm 16.8 W 14 19 1019.3 - 0.0 - Partly cloudy - - - - -
19/05:00pm 17.8 WSW 13 21 1019.4 - 0.0 - Partly cloudy - - - - -
19/04:30pm 16.9 W 15 22 1019.4 - 0.0 - Partly cloudy - - - - -
19/04:00pm 17.3 WSW 14 22 1019.5 - 0.0 - Partly cloudy - - - - -
19/03:30pm 16.6 W 12 19 1019.6 - 0.0 - Partly cloudy - - - - -
19/03:00pm 17.0 WSW 12 22 1019.6 - 0.0 - Partly cloudy - - - - -
19/02:30pm 16.9 WSW 12 18 1019.5 - 0.0 - Partly cloudy - - - - -
19/02:00pm 16.5 WSW 13 18 1019.6 - 0.0 - Partly cloudy - - - - -
19/01:30pm 16.4 WSW 13 19 1019.5 - 0.0 - Partly cloudy - - - - -
19/01:00pm 16.1 WSW 12 20 1019.5 - 0.0 - Partly cloudy - - - - -
19/12:30pm 17.1 W 11 15 1019.3 - 0.0 - Partly cloudy - - - - -
19/12:00pm 16.5 WSW 11 16 1019.2 - 0.0 - Partly cloudy - - - - -
19/11:30am 16.1 WSW 12 20 1019.1 - 0.0 - Partly cloudy - - - - -
19/11:00am 16.1 WSW 11 18 1019.1 - 0.0 - Partly cloudy - - - - -
19/10:30am 15.7 WSW 10 14 1019.1 - 0.0 - Partly cloudy - - - - -
19/10:00am 15.4 SW 10 16 1018.8 - 0.0 - Partly cloudy - - - - -
19/09:30am 14.4 SW 10 15 1018.8 - 0.0 - Partly cloudy - - - - -
19/09:00am 14.3 WSW 9 12 1018.2 - 4.6 - Cloudy - - - - -
19/08:30am 14.1 SW 9 13 1017.9 - 4.6 - Partly cloudy - - - - -
19/08:00am 14.0 SW 8 11 1017.6 - 4.6 - Partly cloudy - - - - -
19/07:30am 13.4 SW 6 9 1017.3 - 4.6 - Partly cloudy - - - - -
19/07:00am 11.8 SW 7 8 1016.9 - 4.6 - Partly cloudy - - - - -
19/06:30am 11.7 SW 7 9 1016.4 - 4.6 - Partly cloudy - - - - -
19/06:00am 10.9 SW 7 9 1016.2 - 4.6 - Mostly clear - - - - -
19/05:30am 10.8 SW 6 8 1015.9 - 4.6 - - - - - - -
19/05:00am 11.5 SW 7 9 1015.7 - 4.6 - Cloudy - - - - -
19/04:30am 11.3 SW 7 9 1015.7 - 4.6 - Partly cloudy - - - - -
19/04:00am 11.5 SW 7 10 1015.5 - 4.6 - Partly cloudy - - - - -
19/03:30am 11.1 SW 7 10 1015.3 - 4.6 - Partly cloudy - - - - -
19/03:00am 11.4 WSW 7 9 1015.2 - 4.6 - - - - - - -
19/02:30am 11.8 SW 8 11 1015.2 - 4.6 - Partly cloudy - - - - -
19/02:00am 11.6 WSW 7 10 1015.3 - 4.6 - Partly cloudy - - - - -
19/01:30am 11.4 WSW 8 10 1015.3 - 4.6 - Partly cloudy - - - - -
19/01:00am 12.0 SW 11 15 1015.3 - 4.6 - Partly cloudy - - - - -
19/12:30am 12.6 SW 10 14 1015.1 - 4.6 - Partly cloudy - - - - -
19/12:00am 12.2 WSW 9 13 1015.0 - 4.6 - Mostly clear - - - - -
 
Date/Time
EDT
Temp

°C
Wind Pressure Rain
since 9am
mm
Weather Cloud Vis
km
Sea
Height
m
Swell
Dir
 
Speed
knots
Gust
knots
hPa Trend Height
m
Period
s
Dir
18/11:30pm 12.1 SW 8 12 1014.8 - 4.6 - - - - - - -
18/11:00pm 12.4 SW 9 13 1014.8 - 4.6 - Partly cloudy - - - - -
18/10:30pm 13.3 WSW 9 13 1014.6 - 4.6 - Partly cloudy - - - - -
18/10:00pm 13.2 WSW 8 11 1014.2 - 4.6 - Partly cloudy - - - - -
18/09:30pm 13.0 SW 8 11 1013.9 - 4.6 - Partly cloudy - - - - -
18/09:00pm 13.4 SW 10 15 1013.7 - 4.6 - Cloudy - - - - -
18/08:30pm 13.9 SW 9 13 1013.5 - 4.6 - Partly cloudy - - - - -
18/08:00pm 14.6 WSW 13 17 1012.9 - 4.6 - Partly cloudy - - - - -
18/07:30pm 15.0 WSW 15 21 1012.5 - 4.6 - - - - - - -
18/07:00pm 15.6 WSW 14 20 1012.0 - 4.6 - - - - - - -
18/06:30pm 15.6 WSW 16 24 1011.3 - 4.6 - Partly cloudy - - - - -
18/06:00pm 15.5 WSW 14 19 1011.0 - 4.6 - Cloudy - - - - -
18/05:30pm 16.7 WSW 18 23 1010.7 - 4.6 - Partly cloudy - - - - -
18/05:00pm 16.8 WSW 18 24 1010.4 - 4.6 - - - - - - -
18/04:30pm 16.5 WSW 18 24 1010.0 - 4.6 - Partly cloudy - - - - -
18/04:00pm 16.6 WSW 19 27 1009.4 - 4.6 - - - - - - -
18/03:30pm 15.3 W 14 25 1009.1 - 4.6 - Partly cloudy - - - - -
18/03:20pm 15.2 WSW 18 31 1008.9 - 4.4 - Partly cloudy - - - - -
18/03:00pm 17.1 W 18 24 1008.6 - 4.2 - Partly cloudy - - - - -
18/02:30pm 16.0 WSW 15 20 1008.5 - 4.2 - Partly cloudy - - - - -
18/02:00pm 13.2 WSW 15 22 1008.4 - 4.2 - Partly cloudy - - - - -
18/01:41pm 16.5 W 18 29 1007.7 - 3.6 - Partly cloudy - - - - -
18/01:30pm 17.4 W 19 25 1007.5 - 3.6 - Partly cloudy - - - - -
18/01:00pm 17.1 W 16 21 1007.2 - 3.6 - Partly cloudy - - - - -
18/12:30pm 16.5 W 13 19 1007.1 - 3.6 - Partly cloudy - - - - -
18/12:00pm 15.3 W 12 15 1006.7 - 3.6 Recent precip. Cloudy - - - - -
18/11:30am 12.4 WSW 12 16 1006.7 - 3.6 - Partly cloudy - - - - -
18/11:16am 13.2 W 15 27 1006.7 - 3.2 - Partly cloudy - - - - -
18/11:00am 13.1 W 16 23 1006.2 - 2.8 - Partly cloudy - - - - -
18/10:38am 17.6 WNW 21 31 1005.6 - 0.0 - Partly cloudy - - - - -
18/10:30am 17.6 WNW 20 29 1005.5 - 0.0 - Partly cloudy - - - - -
18/10:02am 16.4 NW 15 25 1005.6 - 0.0 - Partly cloudy - - - - -
18/10:00am 16.1 NW 14 24 1005.6 - 0.0 - Partly cloudy - - - - -
18/09:30am 15.6 NW 15 21 1005.9 - 0.0 - Partly cloudy - - - - -
18/09:00am 14.7 NW 14 22 1005.7 - 0.0 - Cloudy - - - - -
18/08:30am 13.9 NW 10 16 1005.4 - 0.0 - Partly cloudy - - - - -
18/08:00am 13.6 NW 12 17 1005.3 - 0.0 - Partly cloudy - - - - -
18/07:30am 12.3 NNW 9 12 1005.2 - 0.0 - Partly cloudy - - - - -
18/07:00am 9.3 N 6 8 1005.2 - 0.0 - - - - - - -
18/06:30am 7.8 N 6 8 1005.0 - 0.0 - - - - - - -
18/06:00am 7.5 N 5 7 1005.0 - 0.0 - - - - - - -
18/05:30am 8.2 N 6 8 1004.7 - 0.0 - - - - - - -
18/05:00am 8.7 N 6 8 1004.8 - 0.0 - Partly cloudy - - - - -
18/04:30am 8.5 N 5 7 1004.9 - 0.0 - - - - - - -
18/04:00am 9.0 N 6 7 1005.1 - 0.0 - - - - - - -
18/03:30am 9.6 N 6 9 1005.4 - 0.0 - Partly cloudy - - - - -
18/03:00am 9.3 NNW 5 7 1005.9 - 0.0 - Cloudy - - - - -
18/02:30am 8.7 N 5 7 1006.0 - 0.0 - Partly cloudy - - - - -
18/02:00am 8.4 N 5 7 1006.3 - 0.0 - Partly cloudy - - - - -
18/01:30am 8.8 N 5 7 1006.7 - 0.0 - - - - - - -
18/01:00am 9.5 N 6 7 1007.0 - 0.0 - - - - - - -

Other Formats:

Comma delimited format used in spreadsheet applications
http://www.bom.gov.au/fwo/IDV60701/IDV60701.94828.axf

JavaScript Object Notation format (JSON) in row-major order
http://www.bom.gov.au/fwo/IDV60701/IDV60701.94828.json